To NAV CANADA Home Page Login to a new session Search on AWWS site Disclaimer Vers la page française équivalente Tips FAQ What's new on the site To the Forecasts and Observations / NOTAM section To "File a Flight Plan" website Publications and other links Update of the User's profile FIC Telephone Numbers My Weather Data Folder Route Weather Data Regional Weather Data Local Weather Data To the Forecasts and Observations / NOTAM section
Request Generated 04/24/2019 at 16:02:13 UTC . Weather information available at that time is displayed.

METAR/TAF

AKLAVIK/FREDDIE CARMICHAEL/NT    (show WxCam)

METAR CYKD 241500Z 32012G19KT 15SM FEW240 M13/M16 A3033 RMK CI2 CF DIST W SLP272=
METAR CYKD 241400Z 33009G15KT 15SM FEW180 SCT240 M14/M16 A3031 RMK AC1CI2 CF DIST W SLP267=
METAR CYKD 241300Z 33009G17KT 15SM FEW170 SCT240 M14/M16 A3029 RMK AC1CI3 SSS AFT 23UTC TR/SNW CVR/TRACE LOOSE SLP260=

CYKD - No TAF is issued for this station

Your time UTC time
Weather data provided by Environment Canada and NAV CANADA